Overview Statistics Trail Chart Weather Telemetry Raw packets
 

This is the latest recevied weather packets stored in our database for station/object KB4JAC-13. If no packets are shown the sender has not sent any weather packets the latest 10 day(s).

<< 19 20 21 22 23 24 25 >>
Time Temp. Humidity Pressure Rain* Wind** Luminosity Snow
1788272267 30° C 73% 995.8 hPa 0 mm - - -
1788271666 28.89° C 77% 995.8 hPa 0 mm - - -
1788271066 28.33° C 79% 995.9 hPa 0 mm - - -
1788270466 27.22° C 82% 995.7 hPa 0 mm - - -
1788269864 26.67° C 83% 995.7 hPa 0 mm - - -
1788269263 26.67° C 85% 995.7 hPa 0 mm - - -
1788268662 26.67° C 86% 995.8 hPa 0 mm - - -
1788268062 25° C 90% 995.7 hPa 0 mm - - -
1788267461 23.33° C 98% 995.6 hPa 0 mm - - -
1788266860 22.22° C 99% 995.7 hPa 0 mm - - -
1788266259 21.67° C 99% 995.6 hPa 0 mm - - -
1788265658 21.67° C 99% 995.6 hPa 0 mm - - -
1788265057 21.11° C 99% 995.4 hPa 0 mm - - -
1788264456 20.56° C 99% 995.4 hPa 0 mm - - -
1788263855 20.56° C 99% 995.1 hPa 0 mm - - -
1788263254 20° C 99% 995 hPa 0 mm - - -
1788262653 20° C 99% 994.8 hPa 0 mm - - -
1788262052 20° C 99% 994.7 hPa 0 mm - - -
1788261451 20° C 99% 994.6 hPa 0 mm - - -
1788260850 20° C 99% 994.5 hPa 0 mm - - -
1788260249 20° C 99% 994.4 hPa 0 mm - - -
1788259649 20° C 99% 994.4 hPa 0 mm - - -
1788259048 20° C 99% 994.2 hPa 0 mm - - -
1788258447 20° C 99% 994.2 hPa 0 mm - - -
1788257846 20° C 99% 994.1 hPa 0 mm - - -

* Rain since midnight (hover to see other rain measurements)
** Current wind speed in m/s (hover to see current wind gust speed)